Time;durP1;ratioP1;P1;durP2;ratioP2;P2;SDS_P1;SDS_P2;PMS_P1;PMS_P2;Temp;Humidity;BMP_temperature;BMP_pressure;BME280_temperature;BME280_humidity;BME280_pressure;Samples;Min_cycle;Max_cycle;Signal;HPM_P1;HPM_P2
2021/12/28 00:01:02;;;;;;;10.00;5.15;;;;;;;3.19;50.46;99091.59;4204027;34;33854;-90
2021/12/28 00:03:31;;;;;;;8.50;4.32;;;;;;;3.31;50.38;99083.97;4200900;34;33352;-91
2021/12/28 00:06:00;;;;;;;13.35;6.32;;;;;;;3.27;50.84;99091.63;4203102;34;33831;-90
2021/12/28 00:08:29;;;;;;;12.45;5.05;;;;;;;3.27;50.72;99092.47;4210858;34;33736;-92
2021/12/28 00:10:58;;;;;;;9.75;6.22;;;;;;;3.20;50.88;99093.28;4210179;34;33849;-92
2021/12/28 00:13:29;;;;;;;8.13;5.00;;;;;;;3.26;51.23;99077.94;4205134;34;34010;-89
2021/12/28 00:16:24;;;;;;;7.12;4.47;;;;;;;3.30;51.24;99087.37;4200880;34;34441;-90
2021/12/28 00:18:52;;;;;;;7.12;3.90;;;;;;;3.44;51.34;99078.91;4216597;28;34015;-90
2021/12/28 00:21:21;;;;;;;6.55;3.62;;;;;;;3.45;50.95;99072.94;4216730;33;36245;-89
2021/12/28 00:23:50;;;;;;;8.85;4.65;;;;;;;3.36;51.36;99073.75;4216822;33;34399;-90
2021/12/28 00:26:20;;;;;;;8.77;4.93;;;;;;;3.37;51.56;99081.44;4223684;33;33815;-90
2021/12/28 00:28:50;;;;;;;9.77;3.97;;;;;;;3.51;51.80;99088.34;4215787;33;33166;-92
2021/12/28 00:31:35;;;;;;;7.35;4.45;;;;;;;3.50;52.41;99081.50;4224740;33;34355;-93
2021/12/28 00:34:04;;;;;;;8.00;4.40;;;;;;;3.33;53.36;99084.81;4219198;33;33877;-91
2021/12/28 00:36:33;;;;;;;10.63;4.35;;;;;;;3.33;53.96;99082.25;4214747;34;33508;-89
2021/12/28 00:39:02;;;;;;;9.60;4.18;;;;;;;3.37;54.38;99078.87;4223977;33;33650;-90
2021/12/28 00:41:31;;;;;;;7.87;4.18;;;;;;;3.33;54.68;99091.66;4223320;33;33616;-90
2021/12/28 00:44:01;;;;;;;7.95;4.00;;;;;;;3.31;54.87;99090.78;4218325;33;33858;-90
2021/12/28 00:46:30;;;;;;;8.00;4.05;;;;;;;3.40;54.87;99086.56;4221886;33;33977;-90
2021/12/28 00:49:00;;;;;;;5.40;3.33;;;;;;;3.39;55.17;99087.44;4213938;34;34819;-90
2021/12/28 00:51:29;;;;;;;11.90;4.97;;;;;;;3.48;54.62;99089.19;4219016;33;33959;-91
2021/12/28 00:53:58;;;;;;;7.10;3.80;;;;;;;3.44;54.98;99086.59;4218759;34;33488;-89
2021/12/28 00:56:27;;;;;;;6.00;3.58;;;;;;;3.24;55.72;99094.16;4215681;33;33476;-89
2021/12/28 00:58:56;;;;;;;8.15;4.05;;;;;;;3.39;55.52;99095.13;4220264;33;34292;-89
2021/12/28 01:01:25;;;;;;;6.05;4.05;;;;;;;3.33;55.91;99095.06;4219050;33;34093;-89
2021/12/28 01:03:54;;;;;;;6.65;3.95;;;;;;;3.33;55.93;99083.97;4215045;33;34073;-89
2021/12/28 01:06:24;;;;;;;7.10;3.92;;;;;;;3.15;56.43;99092.41;4221163;33;33439;-90
2021/12/28 01:08:55;;;;;;;6.22;3.97;;;;;;;3.23;56.69;99089.88;4215851;33;35625;-90
2021/12/28 01:11:24;;;;;;;6.90;4.25;;;;;;;3.18;56.82;99088.13;4215649;33;33488;-91
2021/12/28 01:13:53;;;;;;;7.35;4.32;;;;;;;3.06;57.57;99080.38;4216962;33;33653;-90
2021/12/28 01:16:21;;;;;;;6.57;4.70;;;;;;;3.33;57.03;99082.25;4214438;33;33537;-93
2021/12/28 01:18:50;;;;;;;6.20;4.07;;;;;;;3.02;58.17;99078.66;4213982;34;33663;-92
2021/12/28 01:21:19;;;;;;;8.98;4.35;;;;;;;3.03;58.27;99076.94;4223975;33;33979;-91
2021/12/28 01:23:49;;;;;;;7.30;4.87;;;;;;;2.75;59.73;99067.34;4214201;34;32214;-91
2021/12/28 01:26:18;;;;;;;7.72;4.75;;;;;;;2.68;60.25;99062.13;4214071;34;33348;-91
2021/12/28 01:28:47;;;;;;;7.68;4.57;;;;;;;2.82;60.07;99063.09;4214563;33;34168;-91
2021/12/28 01:31:16;;;;;;;6.62;4.15;;;;;;;2.72;60.63;99064.72;4212752;33;34577;-90
2021/12/28 01:33:45;;;;;;;6.82;3.87;;;;;;;2.88;60.20;99059.75;4209777;33;34787;-90
2021/12/28 01:36:14;;;;;;;7.25;3.62;;;;;;;2.91;60.10;99059.78;4216771;33;33781;-91
2021/12/28 01:38:43;;;;;;;6.43;3.92;;;;;;;2.75;60.80;99062.22;4213250;33;32787;-90
2021/12/28 01:41:13;;;;;;;7.20;4.18;;;;;;;2.64;61.10;99058.69;4211740;33;33451;-92
2021/12/28 01:43:43;;;;;;;8.93;4.87;;;;;;;2.64;61.30;99045.06;4221100;33;32177;-92
2021/12/28 01:46:13;;;;;;;7.80;4.43;;;;;;;2.78;61.03;99053.69;4217895;33;33549;-91
2021/12/28 01:48:43;;;;;;;4.70;3.22;;;;;;;2.90;60.61;99051.22;4210964;34;34667;-91
2021/12/28 01:51:13;;;;;;;8.68;4.40;;;;;;;2.85;60.67;99052.91;4215969;33;33107;-91
2021/12/28 01:53:43;;;;;;;7.75;4.25;;;;;;;2.81;61.15;99053.72;4227517;33;33719;-92
2021/12/28 01:56:15;;;;;;;8.15;3.87;;;;;;;2.95;60.70;99041.03;4222853;33;33802;-91
2021/12/28 01:58:44;;;;;;;6.50;4.12;;;;;;;2.58;61.65;99045.84;4221162;33;33857;-90
2021/12/28 02:01:13;;;;;;;9.60;4.62;;;;;;;2.55;62.38;99045.81;4227529;33;33620;-91
2021/12/28 02:03:46;;;;;;;6.12;4.50;;;;;;;2.67;62.14;99052.75;4229947;33;33488;-94
2021/12/28 02:06:16;;;;;;;6.68;3.85;;;;;;;2.66;62.70;99054.47;4218556;33;33419;-92
2021/12/28 02:08:45;;;;;;;5.62;3.80;;;;;;;2.43;63.96;99054.25;4218907;33;34019;-91
2021/12/28 02:11:16;;;;;;;8.10;4.45;;;;;;;2.19;64.87;99043.78;4221650;33;33238;-92
2021/12/28 02:13:46;;;;;;;10.82;5.22;;;;;;;1.45;67.59;99027.56;4222453;33;34146;-90
2021/12/28 02:16:17;;;;;;;9.93;5.22;;;;;;;1.73;66.98;99021.09;4216977;33;34441;-91
2021/12/28 02:18:47;;;;;;;5.47;3.70;;;;;;;1.66;67.03;99017.63;4213612;34;33689;-91
2021/12/28 02:21:17;;;;;;;5.18;3.78;;;;;;;1.88;66.15;99012.75;4213357;34;34612;-90
2021/12/28 02:23:46;;;;;;;10.18;6.47;;;;;;;1.84;66.32;99026.37;4214696;33;33058;-91
2021/12/28 02:26:14;;;;;;;5.60;3.70;;;;;;;1.01;69.40;99009.97;4217234;34;33683;-92
2021/12/28 02:28:45;;;;;;;10.43;4.82;;;;;;;0.72;71.29;99015.50;4213986;33;33683;-91
2021/12/28 02:31:15;;;;;;;6.15;4.00;;;;;;;1.76;67.25;99020.28;4214680;33;33584;-91
2021/12/28 02:33:44;;;;;;;7.53;4.35;;;;;;;1.66;67.58;99021.88;4214483;34;34064;-90
2021/12/28 02:36:13;;;;;;;9.98;4.62;;;;;;;2.08;66.00;99026.63;4218038;33;33861;-91
2021/12/28 02:38:43;;;;;;;7.37;4.18;;;;;;;1.94;66.10;99017.94;4218350;34;34494;-93
2021/12/28 02:41:13;;;;;;;9.43;5.28;;;;;;;1.90;66.51;99019.59;4201794;34;32112;-91
2021/12/28 02:43:45;;;;;;;9.27;4.72;;;;;;;1.88;66.70;99030.66;4213470;33;33714;-91
2021/12/28 02:46:16;;;;;;;10.63;4.55;;;;;;;2.03;66.18;99035.94;4214152;34;34726;-91
2021/12/28 02:48:45;;;;;;;7.82;4.43;;;;;;;1.85;66.92;99030.63;4201153;34;32030;-92
2021/12/28 02:51:16;;;;;;;10.00;4.10;;;;;;;2.02;66.13;99023.97;4213414;34;32201;-91
2021/12/28 02:53:47;;;;;;;6.72;4.12;;;;;;;2.40;65.18;99032.87;4226227;33;34157;-91
2021/12/28 02:56:17;;;;;;;11.55;5.03;;;;;;;2.45;64.88;99029.53;4213370;33;33819;-92
2021/12/28 02:58:48;;;;;;;10.73;5.85;;;;;;;2.21;65.00;99021.62;4221681;33;34092;-91
2021/12/28 03:01:20;;;;;;;6.80;4.22;;;;;;;2.41;64.96;99027.75;4217506;33;33387;-91
2021/12/28 03:03:51;;;;;;;9.45;5.60;;;;;;;2.55;64.40;99025.34;4221767;33;33402;-91
2021/12/28 03:06:21;;;;;;;;;;;;;;;2.50;64.43;99020.16;4216178;34;33559;-92
2021/12/28 03:08:56;;;;;;;6.15;4.15;;;;;;;2.24;65.31;99022.50;4212790;33;33639;-92
2021/12/28 03:11:26;;;;;;;8.20;4.40;;;;;;;2.29;65.00;99020.81;4213542;34;34251;-91
2021/12/28 03:13:58;;;;;;;9.23;5.10;;;;;;;2.41;64.45;99014.97;4214370;33;33990;-91
2021/12/28 03:16:28;;;;;;;7.43;4.28;;;;;;;2.51;64.41;99015.91;4213164;34;33789;-91
2021/12/28 03:19:00;;;;;;;8.57;5.15;;;;;;;2.73;63.74;99010.13;4218270;33;34132;-92
2021/12/28 03:21:30;;;;;;;7.57;4.72;;;;;;;2.18;65.63;99007.09;4214910;34;34185;-91
2021/12/28 03:24:01;;;;;;;8.30;4.37;;;;;;;2.70;64.38;99009.22;4214637;33;33536;-91
2021/12/28 03:26:29;;;;;;;6.37;4.05;;;;;;;2.71;64.44;99018.66;4214891;33;32059;-87
2021/12/28 03:28:58;;;;;;;8.95;5.00;;;;;;;2.76;64.40;99032.34;4215026;34;33892;-90
2021/12/28 03:31:27;;;;;;;9.02;5.00;;;;;;;2.53;65.24;99022.75;4212465;34;34123;-91
2021/12/28 03:33:57;;;;;;;6.78;4.50;;;;;;;2.41;65.49;99020.09;4217312;34;33507;-91
2021/12/28 03:36:29;;;;;;;7.47;4.37;;;;;;;2.44;65.18;99022.69;4212577;34;33866;-91
2021/12/28 03:39:02;;;;;;;10.43;5.60;;;;;;;2.42;65.10;99018.41;4211558;33;33742;-90
2021/12/28 03:41:32;;;;;;;12.40;6.18;;;;;;;2.44;65.04;99026.94;4206951;33;34222;-92
2021/12/28 03:44:03;;;;;;;;;;;;;;;2.53;64.52;99017.63;4207793;34;33533;-90
2021/12/28 03:46:32;;;;;;;9.63;4.97;;;;;;;2.06;65.94;99020.63;4217895;33;34184;-92
2021/12/28 03:49:02;;;;;;;8.82;4.45;;;;;;;2.31;65.38;99025.97;4217420;33;34062;-94
2021/12/28 03:51:30;;;;;;;7.97;4.15;;;;;;;2.35;65.44;99020.06;4225060;33;33588;-89
2021/12/28 03:54:00;;;;;;;10.27;5.97;;;;;;;2.40;65.44;99026.06;4220726;33;33409;-90
2021/12/28 03:56:29;;;;;;;7.62;5.30;;;;;;;2.17;66.20;99025.84;4215882;33;32981;-91
2021/12/28 03:58:58;;;;;;;9.05;5.22;;;;;;;2.25;65.92;99031.06;4219590;33;34741;-91
2021/12/28 04:01:27;;;;;;;14.57;5.10;;;;;;;2.44;65.49;99035.50;4220436;33;33432;-91
2021/12/28 04:03:57;;;;;;;10.45;5.68;;;;;;;2.46;65.53;99027.81;4219916;33;33131;-91
2021/12/28 04:06:30;;;;;;;10.73;6.03;;;;;;;2.13;66.17;99027.53;4220515;33;33301;-91
2021/12/28 04:09:03;;;;;;;9.85;6.07;;;;;;;2.53;65.34;99027.88;4221767;33;34840;-91
2021/12/28 04:11:33;;;;;;;11.50;5.78;;;;;;;2.44;65.80;99040.63;4214204;33;33909;-93
2021/12/28 04:14:04;;;;;;;8.80;5.65;;;;;;;2.13;66.65;99035.19;4225018;33;33140;-93
2021/12/28 04:16:34;;;;;;;10.73;6.03;;;;;;;2.22;66.52;99033.56;4221132;33;33556;-92
2021/12/28 04:19:05;;;;;;;13.90;8.05;;;;;;;2.43;66.19;99035.47;4207517;33;33605;-90
2021/12/28 04:21:34;;;;;;;11.05;5.87;;;;;;;2.48;66.06;99026.13;4211495;33;33962;-90
2021/12/28 04:24:06;;;;;;;10.60;6.25;;;;;;;2.30;66.99;99027.69;4206311;33;32910;-90
2021/12/28 04:26:34;;;;;;;16.52;8.27;;;;;;;2.57;65.92;99028.78;4212353;33;34400;-88
2021/12/28 04:29:04;;;;;;;11.07;6.18;;;;;;;2.37;67.11;99025.16;4209682;33;32702;-92
2021/12/28 04:31:32;;;;;;;12.95;7.10;;;;;;;2.47;66.99;99032.09;4222687;33;34612;-89
2021/12/28 04:34:02;;;;;;;16.37;6.50;;;;;;;2.24;68.21;99037.00;4218471;33;34229;-89
2021/12/28 04:36:31;;;;;;;10.45;5.60;;;;;;;2.28;68.20;99033.63;4224150;33;34576;-89
2021/12/28 04:39:00;;;;;;;7.53;5.03;;;;;;;2.44;67.78;99038.06;4225356;33;34742;-91
2021/12/28 04:41:30;;;;;;;15.13;5.47;;;;;;;2.44;68.22;99037.16;4227586;33;33784;-90
2021/12/28 04:44:01;;;;;;;12.20;4.37;;;;;;;2.22;69.28;99031.00;4220160;33;32927;-91
2021/12/28 04:46:30;;;;;;;9.95;5.15;;;;;;;2.17;69.83;99027.53;4221579;33;35357;-92
2021/12/28 04:48:59;;;;;;;10.50;4.18;;;;;;;2.24;69.53;99024.19;4217560;33;33934;-91
2021/12/28 04:51:28;;;;;;;15.63;4.78;;;;;;;2.17;70.00;99017.31;4211925;33;32730;-91
2021/12/28 04:54:00;;;;;;;7.12;4.28;;;;;;;2.12;70.00;99028.34;4217695;33;33842;-91
2021/12/28 04:56:33;;;;;;;7.30;4.72;;;;;;;2.14;70.24;99018.97;4222785;33;34475;-91
2021/12/28 04:59:02;;;;;;;8.63;3.87;;;;;;;2.07;70.31;99016.34;4222973;33;33938;-91
2021/12/28 05:01:31;;;;;;;8.43;4.82;;;;;;;2.09;70.44;99014.69;4228865;33;34463;-91
2021/12/28 05:04:00;;;;;;;5.62;3.30;;;;;;;2.14;70.44;99015.56;4218545;33;33718;-91
2021/12/28 05:06:28;;;;;;;6.20;3.47;;;;;;;1.70;72.28;99001.47;4219519;33;33816;-91
2021/12/28 05:08:57;;;;;;;8.02;3.45;;;;;;;2.00;71.24;99012.03;4226332;33;34016;-91
2021/12/28 05:11:26;;;;;;;7.32;3.53;;;;;;;2.03;70.80;99017.16;4219519;33;34066;-90
2021/12/28 05:13:56;;;;;;;6.15;3.12;;;;;;;2.11;70.60;99018.97;4220562;33;32938;-93
2021/12/28 05:16:29;;;;;;;9.38;3.70;;;;;;;2.13;70.94;99030.06;4220592;33;33023;-91
2021/12/28 05:18:58;;;;;;;5.15;3.30;;;;;;;2.21;70.81;99025.03;4203785;34;33732;-92
2021/12/28 05:21:30;;;;;;;6.80;3.67;;;;;;;1.93;71.52;99023.88;4222346;33;33819;-91
2021/12/28 05:23:59;;;;;;;7.07;3.40;;;;;;;1.76;72.49;99023.69;4219092;33;33812;-92
2021/12/28 05:26:28;;;;;;;4.87;2.87;;;;;;;2.01;71.47;99029.09;4226365;33;35929;-92
2021/12/28 05:28:58;;;;;;;6.70;3.28;;;;;;;1.84;72.29;99026.37;4219986;33;33955;-91
2021/12/28 05:31:27;;;;;;;6.28;3.05;;;;;;;2.00;71.72;99029.94;4218628;33;31535;-92
2021/12/28 05:33:56;;;;;;;3.80;2.53;;;;;;;2.07;71.50;99036.81;4217776;33;33348;-91
2021/12/28 05:36:26;;;;;;;4.65;2.92;;;;;;;2.09;71.47;99030.88;4219675;33;34813;-91
2021/12/28 05:38:55;;;;;;;4.15;2.85;;;;;;;2.13;71.30;99042.03;4219090;33;33611;-92
2021/12/28 05:41:26;;;;;;;4.40;3.00;;;;;;;2.14;71.29;99041.16;4220339;33;32323;-92
2021/12/28 05:43:59;;;;;;;3.85;2.85;;;;;;;2.11;71.54;99043.69;4211918;33;32959;-91
2021/12/28 05:46:28;;;;;;;4.15;2.45;;;;;;;1.77;72.30;99043.31;4217043;33;34248;-92
2021/12/28 05:48:57;;;;;;;7.18;3.30;;;;;;;2.08;71.59;99041.97;4218868;33;34449;-90
2021/12/28 05:51:26;;;;;;;5.35;3.03;;;;;;;2.00;71.90;99038.44;4213258;33;33696;-92
2021/12/28 05:53:54;;;;;;;3.35;2.85;;;;;;;1.99;71.90;99039.31;4222642;33;34060;-90
2021/12/28 05:56:23;;;;;;;6.22;2.97;;;;;;;2.04;71.69;99045.31;4216411;33;33876;-91
2021/12/28 05:58:52;;;;;;;5.22;3.05;;;;;;;1.95;72.16;99050.34;4206240;34;32450;-91
2021/12/28 06:01:22;;;;;;;5.53;3.35;;;;;;;1.89;72.54;99047.72;4216154;33;32629;-91
2021/12/28 06:03:51;;;;;;;4.70;2.47;;;;;;;1.54;73.69;99049.84;4212145;33;35939;-93
2021/12/28 06:06:20;;;;;;;6.65;2.97;;;;;;;2.11;72.00;99051.38;4219957;33;34399;-90
2021/12/28 06:08:51;;;;;;;4.55;2.65;;;;;;;2.22;71.00;99044.66;4218175;33;33789;-90
2021/12/28 06:11:20;;;;;;;6.05;2.90;;;;;;;1.81;72.31;99050.22;4218088;33;33961;-91
2021/12/28 06:13:51;;;;;;;4.05;2.33;;;;;;;1.43;74.46;99058.25;4216498;33;33495;-92
2021/12/28 06:16:27;;;;;;;7.05;3.60;;;;;;;1.64;73.45;99062.78;4216526;33;33272;-91
2021/12/28 06:18:56;;;;;;;4.97;2.35;;;;;;;1.99;72.44;99062.34;4221508;33;32998;-91
2021/12/28 06:21:26;;;;;;;5.35;3.22;;;;;;;1.84;72.72;99055.34;4206834;34;32879;-91
2021/12/28 06:23:54;;;;;;;5.65;3.28;;;;;;;1.59;74.26;99063.53;4222728;33;33285;-91
2021/12/28 06:26:23;;;;;;;8.10;4.12;;;;;;;1.89;73.04;99060.53;4217013;33;34134;-91
2021/12/28 06:28:52;;;;;;;3.55;2.72;;;;;;;1.59;74.25;99056.72;4229489;33;34449;-91
2021/12/28 06:31:28;;;;;;;3.62;2.42;;;;;;;1.98;72.79;99052.97;4220069;33;33863;-91
2021/12/28 06:34:02;;;;;;;6.03;3.22;;;;;;;2.06;72.59;99055.59;4223790;33;33178;-91
2021/12/28 06:36:31;;;;;;;7.05;3.10;;;;;;;1.95;72.90;99055.47;4216926;33;34008;-91
2021/12/28 06:39:00;;;;;;;4.55;2.95;;;;;;;2.16;72.34;99061.66;4224885;33;34686;-90
2021/12/28 06:41:32;;;;;;;5.18;2.95;;;;;;;2.19;71.93;99065.09;4219626;33;33761;-89
2021/12/28 06:44:03;;;;;;;9.23;3.92;;;;;;;2.27;71.83;99065.16;4215254;33;33423;-91
2021/12/28 06:46:32;;;;;;;4.43;3.00;;;;;;;2.17;71.71;99069.34;4219839;33;33488;-91
2021/12/28 06:49:02;;;;;;;4.43;3.08;;;;;;;2.09;72.01;99069.25;4212907;33;33891;-91
2021/12/28 06:51:34;;;;;;;4.70;3.03;;;;;;;2.14;71.94;99070.16;4215077;33;33706;-91
2021/12/28 06:54:02;;;;;;;5.78;2.95;;;;;;;2.09;71.90;99066.69;4226102;33;34201;-90
2021/12/28 06:56:31;;;;;;;4.95;3.22;;;;;;;2.07;72.08;99067.53;4232198;33;33869;-90
2021/12/28 06:59:00;;;;;;;8.57;3.33;;;;;;;2.22;71.87;99067.69;4208843;33;35171;-90
2021/12/28 07:01:29;;;;;;;3.83;2.42;;;;;;;2.23;72.07;99068.56;4222668;33;34168;-90
2021/12/28 07:03:58;;;;;;;4.80;3.20;;;;;;;2.26;71.62;99072.00;4218611;33;32709;-91
2021/12/28 07:06:29;;;;;;;3.97;2.75;;;;;;;2.02;72.85;99075.16;4223890;33;33542;-91
2021/12/28 07:08:57;;;;;;;4.70;3.33;;;;;;;2.08;72.87;99072.69;4220454;33;33267;-90
2021/12/28 07:11:27;;;;;;;5.90;3.28;;;;;;;2.22;72.34;99084.75;4215869;33;34397;-90
2021/12/28 07:13:56;;;;;;;5.00;2.92;;;;;;;2.20;72.38;99086.41;4218670;33;34045;-90
2021/12/28 07:16:24;;;;;;;7.68;2.90;;;;;;;2.31;71.56;99087.41;4220187;33;33935;-90
2021/12/28 07:18:53;;;;;;;4.55;3.17;;;;;;;2.43;71.14;99097.75;4215164;33;34143;-90
2021/12/28 07:21:25;;;;;;;5.62;2.97;;;;;;;2.47;71.38;99098.66;4225469;33;33812;-89
2021/12/28 07:23:59;;;;;;;9.30;3.72;;;;;;;2.23;72.08;99101.84;4228698;33;33304;-91
2021/12/28 07:26:28;;;;;;;7.65;3.25;;;;;;;2.54;70.90;99101.28;4219635;33;34211;-90
2021/12/28 07:28:57;;;;;;;6.00;3.45;;;;;;;2.18;72.38;99100.94;4211691;33;33924;-90
2021/12/28 07:31:26;;;;;;;6.68;3.53;;;;;;;2.12;72.49;99094.03;4218370;33;34214;-91
2021/12/28 07:33:55;;;;;;;6.32;3.15;;;;;;;2.24;72.19;99091.59;4221705;33;34006;-90
2021/12/28 07:36:23;;;;;;;4.30;2.90;;;;;;;2.10;72.28;99094.03;4222077;33;33643;-91
2021/12/28 07:38:53;;;;;;;5.82;2.67;;;;;;;2.09;72.63;99091.44;4219641;33;34783;-90
2021/12/28 07:41:23;;;;;;;4.07;3.03;;;;;;;2.26;72.15;99109.53;4217342;33;34776;-91
2021/12/28 07:43:52;;;;;;;5.62;2.65;;;;;;;2.18;72.56;99103.47;4224078;33;33937;-90
2021/12/28 07:46:21;;;;;;;7.10;3.08;;;;;;;2.24;72.52;99095.84;4221564;33;34561;-91
2021/12/28 07:48:50;;;;;;;7.32;3.30;;;;;;;2.59;71.11;99103.91;4229496;33;33860;-90
2021/12/28 07:51:19;;;;;;;6.45;3.30;;;;;;;2.11;72.37;99102.56;4219751;33;33624;-91
2021/12/28 07:53:48;;;;;;;4.62;3.17;;;;;;;2.28;71.92;99092.50;4217837;33;33501;-90
2021/12/28 07:56:17;;;;;;;5.68;3.25;;;;;;;2.45;71.61;99108.87;4216054;33;33829;-90
2021/12/28 07:58:48;;;;;;;6.47;2.90;;;;;;;2.56;71.30;99104.72;4222647;33;34105;-90
2021/12/28 08:01:18;;;;;;;5.32;3.12;;;;;;;2.27;72.40;99108.69;4219463;33;33690;-90
2021/12/28 08:03:48;;;;;;;8.15;4.40;;;;;;;2.31;72.55;99107.88;4219943;34;33318;-89
2021/12/28 08:06:17;;;;;;;5.47;3.45;;;;;;;2.52;71.75;99102.97;4212334;33;34427;-90
2021/12/28 08:08:46;;;;;;;7.37;3.22;;;;;;;2.46;71.82;99102.91;4213487;34;34198;-90
2021/12/28 08:11:15;;;;;;;7.12;3.47;;;;;;;2.43;72.21;99102.88;4212736;33;34213;-91
2021/12/28 08:13:44;;;;;;;6.65;2.97;;;;;;;2.27;72.45;99095.88;4215301;34;32420;-90
2021/12/28 08:16:14;;;;;;;4.40;2.90;;;;;;;2.46;71.84;99100.34;4219704;33;33825;-91
2021/12/28 08:18:43;;;;;;;6.12;3.22;;;;;;;2.68;71.34;99101.44;4214158;34;34665;-90
2021/12/28 08:21:12;;;;;;;6.80;2.72;;;;;;;2.55;72.01;99100.44;4215952;33;34417;-90
2021/12/28 08:23:40;;;;;;;6.65;3.75;;;;;;;2.18;73.23;99093.25;4218602;33;34113;-91
2021/12/28 08:26:09;;;;;;;10.27;4.18;;;;;;;2.51;71.96;99096.16;4215221;34;34330;-89
2021/12/28 08:28:38;;;;;;;5.47;3.67;;;;;;;2.52;72.23;99089.31;4220324;33;33970;-90
2021/12/28 08:31:07;;;;;;;5.80;3.40;;;;;;;2.37;72.93;99086.59;4217958;33;33922;-89
2021/12/28 08:33:37;;;;;;;4.40;2.58;;;;;;;2.66;71.86;99092.00;4214523;33;33588;-89
2021/12/28 08:36:06;;;;;;;6.80;4.25;;;;;;;2.61;71.67;99091.09;4214450;33;34479;-90
2021/12/28 08:38:35;;;;;;;5.25;3.28;;;;;;;2.61;71.58;99093.66;4217523;33;33324;-90
2021/12/28 08:41:06;;;;;;;12.20;4.18;;;;;;;2.60;71.50;99091.94;4213536;33;32174;-89
2021/12/28 08:43:35;;;;;;;4.90;3.33;;;;;;;2.44;72.38;99103.72;4220534;33;33366;-89
2021/12/28 08:46:05;;;;;;;7.22;3.70;;;;;;;2.63;71.54;99105.62;4219818;33;34555;-90
2021/12/28 08:48:34;;;;;;;9.68;3.90;;;;;;;2.52;72.06;99104.69;4219956;33;34369;-89
2021/12/28 08:51:09;;;;;;;4.00;3.05;;;;;;;2.52;71.93;99113.22;4215343;34;33411;-90
2021/12/28 08:53:38;;;;;;;6.62;3.37;;;;;;;2.61;71.61;99117.59;4213914;33;33461;-89
2021/12/28 08:56:09;;;;;;;;;;;;;;;2.34;72.66;99113.91;4220154;34;34529;-89
2021/12/28 08:58:38;;;;;;;9.00;3.83;;;;;;;2.42;73.01;99116.53;4215142;34;34085;-89
2021/12/28 09:01:07;;;;;;;6.32;3.53;;;;;;;2.26;73.12;99106.97;4214167;34;34489;-91
2021/12/28 09:03:36;;;;;;;4.80;3.25;;;;;;;2.43;72.57;99113.12;4202061;33;32580;-89
2021/12/28 09:06:06;;;;;;;7.30;3.42;;;;;;;2.43;72.52;99107.16;4215562;34;34290;-90
2021/12/28 09:08:35;;;;;;;9.07;3.72;;;;;;;2.33;72.32;99099.38;4218794;33;33914;-89
2021/12/28 09:11:04;;;;;;;5.97;4.35;;;;;;;2.42;72.20;99098.62;4207092;34;34003;-89
2021/12/28 09:13:33;;;;;;;5.50;3.17;;;;;;;2.51;71.82;99087.59;4213213;34;33163;-90
2021/12/28 09:16:01;;;;;;;6.57;3.55;;;;;;;2.34;72.97;99085.75;4216002;33;32091;-89
2021/12/28 09:18:30;;;;;;;8.00;4.32;;;;;;;2.27;73.17;99086.53;4216767;33;34791;-89
2021/12/28 09:20:59;;;;;;;7.75;3.55;;;;;;;2.14;73.35;99084.66;4218531;33;33818;-88
2021/12/28 09:23:29;;;;;;;5.32;3.25;;;;;;;2.34;72.89;99093.44;4228497;33;34421;-89
2021/12/28 09:26:19;;;;;;;7.53;4.17;;;;;;;2.41;72.94;99083.22;4214429;33;33756;-89
2021/12/28 09:28:49;;;;;;;5.37;3.30;;;;;;;2.40;72.97;99081.53;4216317;34;33800;-90
2021/12/28 09:31:18;;;;;;;4.95;3.30;;;;;;;2.61;72.33;99085.97;4215388;33;34419;-89
2021/12/28 09:33:47;;;;;;;8.13;3.83;;;;;;;2.78;71.94;99097.25;4204156;33;32479;-89
2021/12/28 09:36:16;;;;;;;6.72;3.87;;;;;;;2.78;71.71;99097.25;4218824;33;33489;-90
2021/12/28 09:38:47;;;;;;;5.75;3.25;;;;;;;2.63;72.29;99091.97;4205814;34;33880;-89
2021/12/28 09:41:16;;;;;;;7.50;3.60;;;;;;;2.60;72.18;99090.25;4207621;33;32971;-90
2021/12/28 09:43:47;;;;;;;4.18;2.92;;;;;;;2.75;71.43;99080.16;4216853;33;33886;-88
2021/12/28 09:46:16;;;;;;;;;;;;;;;2.17;73.07;99086.41;4210262;33;33753;-88
2021/12/28 09:48:45;;;;;;;7.35;3.80;;;;;;;2.21;73.35;99085.59;4215580;34;33914;-89
2021/12/28 09:51:14;;;;;;;4.95;3.60;;;;;;;2.17;73.66;99079.56;4219479;33;33774;-90
2021/12/28 09:53:43;;;;;;;8.90;4.18;;;;;;;2.32;73.51;99081.44;4217204;34;33163;-89
2021/12/28 09:56:14;;;;;;;5.18;3.25;;;;;;;2.04;74.37;99082.84;4215920;33;33828;-89
2021/12/28 09:58:43;;;;;;;5.35;3.33;;;;;;;2.55;72.94;99089.34;4203434;34;32699;-88
2021/12/28 10:01:12;;;;;;;4.90;3.47;;;;;;;2.59;72.38;99087.69;4214203;33;34133;-89
2021/12/28 10:03:42;;;;;;;6.82;3.47;;;;;;;2.02;73.77;99085.38;4216430;34;33412;-89
2021/12/28 10:06:18;;;;;;;8.38;3.80;;;;;;;2.27;73.23;99081.41;4207066;33;34196;-89
2021/12/28 10:08:47;;;;;;;6.43;2.58;;;;;;;2.27;73.55;99080.53;4214721;33;33924;-90
2021/12/28 10:11:17;;;;;;;6.50;3.78;;;;;;;2.33;73.08;99080.59;4223025;33;35137;-90
2021/12/28 10:13:46;;;;;;;5.32;3.67;;;;;;;2.40;73.18;99087.50;4214013;33;32648;-90
2021/12/28 10:16:15;;;;;;;5.40;3.62;;;;;;;2.51;72.87;99091.03;4215462;33;33821;-89
2021/12/28 10:18:44;;;;;;;3.65;2.92;;;;;;;2.58;72.55;99080.84;4219576;34;33904;-90
2021/12/28 10:21:13;;;;;;;5.20;2.37;;;;;;;2.53;72.65;99079.06;4211846;33;33838;-89
2021/12/28 10:26:34;;;;;;;3.90;2.55;;;;;;;2.43;72.75;99081.56;4208492;33;33397;-90
2021/12/28 10:29:29;;;;;;;3.70;2.80;;;;;;;2.19;74.10;99071.91;4211146;33;34281;-89
2021/12/28 10:32:19;;;;;;;5.15;3.10;;;;;;;2.41;73.49;99060.19;4208949;33;33482;-88
2021/12/28 10:34:52;;;;;;;3.25;2.37;;;;;;;2.20;73.34;99059.16;4212379;33;34720;-88
2021/12/28 10:37:26;;;;;;;5.32;3.33;;;;;;;2.42;73.00;99055.09;4212757;33;33551;-90
2021/12/28 10:39:58;;;;;;;4.75;3.53;;;;;;;2.38;73.05;99055.91;4208511;33;34954;-91
2021/12/28 10:42:50;;;;;;;4.53;3.15;;;;;;;2.52;72.83;99059.44;4207854;33;33923;-90
2021/12/28 10:45:21;;;;;;;3.62;2.55;;;;;;;2.56;72.96;99058.66;4211020;33;32407;-91
2021/12/28 10:47:52;;;;;;;3.00;2.53;;;;;;;2.73;72.42;99055.34;4212602;33;33740;-89
2021/12/28 10:50:30;;;;;;;5.30;2.80;;;;;;;2.56;73.02;99055.19;4213813;33;33162;-91
2021/12/28 10:53:11;;;;;;;5.35;3.05;;;;;;;2.44;73.48;99058.53;4221297;33;33832;-92
2021/12/28 10:55:42;;;;;;;9.48;3.25;;;;;;;2.32;74.42;99046.47;4216108;33;104901;-90
2021/12/28 10:58:21;;;;;;;8.60;3.15;;;;;;;2.16;74.10;99041.19;4211864;33;33474;-91
2021/12/28 11:00:50;;;;;;;3.92;2.62;;;;;;;2.27;74.04;99037.91;4207861;33;34716;-90
2021/12/28 11:03:29;;;;;;;5.32;3.45;;;;;;;2.62;73.24;99039.91;4210740;33;33585;-90
2021/12/28 11:06:00;;;;;;;6.53;3.20;;;;;;;2.62;73.31;99028.81;4215157;33;35032;-90
2021/12/28 11:08:29;;;;;;;3.03;2.70;;;;;;;2.56;72.75;99033.03;4219544;33;33680;-89
2021/12/28 11:11:00;;;;;;;4.75;3.33;;;;;;;2.68;72.70;99039.97;4214437;34;34113;-90
2021/12/28 11:13:35;;;;;;;5.95;3.55;;;;;;;2.92;71.93;99044.41;4206292;33;33901;-90
2021/12/28 11:16:08;;;;;;;5.40;2.92;;;;;;;2.59;72.77;99039.03;4198960;34;31345;-91
2021/12/28 11:18:40;;;;;;;3.08;2.17;;;;;;;2.61;73.19;99043.31;4218369;33;34048;-91
2021/12/28 11:21:16;;;;;;;5.05;3.00;;;;;;;2.66;73.00;99035.66;4216025;33;33833;-91
2021/12/28 11:23:47;;;;;;;4.03;2.90;;;;;;;2.32;74.26;99032.78;4220942;33;33972;-92
2021/12/28 11:26:20;;;;;;;4.62;2.30;;;;;;;2.52;73.58;99028.72;4209893;33;31626;-89
2021/12/28 11:28:59;;;;;;;3.15;2.40;;;;;;;2.29;73.79;99022.53;4217731;33;34324;-92
2021/12/28 11:31:30;;;;;;;6.80;2.65;;;;;;;2.11;74.20;99015.56;4208704;33;33729;-91
2021/12/28 11:34:03;;;;;;;3.37;2.62;;;;;;;2.37;74.11;99012.38;4226772;33;33564;-90
2021/12/28 11:36:35;;;;;;;3.00;2.53;;;;;;;2.17;74.75;99015.59;4217617;33;31510;-90
2021/12/28 11:39:05;;;;;;;;;;;;;;;2.42;73.42;99006.47;4227711;33;34375;-93
2021/12/28 11:41:34;;;;;;;4.95;2.70;;;;;;;2.49;73.45;99003.09;4213154;33;33961;-92
2021/12/28 11:44:05;;;;;;;2.87;2.05;;;;;;;2.65;72.70;98998.09;4210563;33;34471;-91
2021/12/28 11:46:36;;;;;;;2.85;2.33;;;;;;;2.48;73.29;98995.41;4211990;33;34151;-91
2021/12/28 11:49:06;;;;;;;4.43;2.40;;;;;;;2.40;74.01;98985.09;4213731;33;32939;-94
2021/12/28 11:51:36;;;;;;;2.85;2.22;;;;;;;2.39;73.30;98990.19;4209731;34;32787;-91
2021/12/28 11:54:08;;;;;;;4.40;2.40;;;;;;;2.66;73.13;98981.88;4217282;33;34238;-94
2021/12/28 11:56:39;;;;;;;6.35;2.90;;;;;;;2.60;73.14;98976.72;4198724;34;31816;-94
2021/12/28 11:59:11;;;;;;;2.87;2.35;;;;;;;2.44;73.74;98971.50;4213305;34;34289;-91